sensor_id;sensor_type;location;lat;lon;timestamp;P1;durP1;ratioP1;P2;durP2;ratioP2
24279;SDS011;12395;42.808;23.408;2023-06-24T00:01:48;9.85;;;7.20;;
24279;SDS011;12395;42.808;23.408;2023-06-24T00:04:14;10.13;;;7.00;;
24279;SDS011;12395;42.808;23.408;2023-06-24T00:06:41;10.98;;;7.32;;
24279;SDS011;12395;42.808;23.408;2023-06-24T00:09:07;11.10;;;7.50;;
24279;SDS011;12395;42.808;23.408;2023-06-24T00:11:32;10.40;;;7.60;;
24279;SDS011;12395;42.808;23.408;2023-06-24T00:13:58;10.23;;;7.60;;
24279;SDS011;12395;42.808;23.408;2023-06-24T00:16:23;10.07;;;7.90;;
24279;SDS011;12395;42.808;23.408;2023-06-24T00:18:55;10.50;;;7.35;;
24279;SDS011;12395;42.808;23.408;2023-06-24T00:21:26;11.80;;;7.72;;
24279;SDS011;12395;42.808;23.408;2023-06-24T00:23:57;11.60;;;8.43;;
24279;SDS011;12395;42.808;23.408;2023-06-24T00:26:24;11.68;;;7.97;;
24279;SDS011;12395;42.808;23.408;2023-06-24T00:28:49;12.80;;;8.20;;
24279;SDS011;12395;42.808;23.408;2023-06-24T00:31:15;11.82;;;8.15;;
24279;SDS011;12395;42.808;23.408;2023-06-24T00:33:40;11.55;;;8.60;;
24279;SDS011;12395;42.808;23.408;2023-06-24T00:36:06;11.20;;;8.50;;
24279;SDS011;12395;42.808;23.408;2023-06-24T00:38:36;10.90;;;8.35;;
24279;SDS011;12395;42.808;23.408;2023-06-24T00:41:02;10.73;;;8.43;;
24279;SDS011;12395;42.808;23.408;2023-06-24T00:43:27;11.95;;;8.60;;
24279;SDS011;12395;42.808;23.408;2023-06-24T00:45:54;11.90;;;8.52;;
24279;SDS011;12395;42.808;23.408;2023-06-24T00:48:20;10.75;;;7.88;;
24279;SDS011;12395;42.808;23.408;2023-06-24T00:50:46;11.52;;;8.45;;
24279;SDS011;12395;42.808;23.408;2023-06-24T00:55:39;13.07;;;9.07;;
24279;SDS011;12395;42.808;23.408;2023-06-24T00:58:05;11.73;;;8.90;;
24279;SDS011;12395;42.808;23.408;2023-06-24T01:00:31;14.25;;;9.35;;
24279;SDS011;12395;42.808;23.408;2023-06-24T01:02:59;13.75;;;9.23;;
24279;SDS011;12395;42.808;23.408;2023-06-24T01:05:25;12.10;;;8.90;;
24279;SDS011;12395;42.808;23.408;2023-06-24T01:07:52;13.50;;;9.50;;
24279;SDS011;12395;42.808;23.408;2023-06-24T01:10:21;13.88;;;9.57;;
24279;SDS011;12395;42.808;23.408;2023-06-24T01:12:48;13.10;;;9.13;;
24279;SDS011;12395;42.808;23.408;2023-06-24T01:15:14;14.57;;;10.10;;
24279;SDS011;12395;42.808;23.408;2023-06-24T01:17:45;13.10;;;9.82;;
24279;SDS011;12395;42.808;23.408;2023-06-24T01:37:10;13.55;;;10.07;;
24279;SDS011;12395;42.808;23.408;2023-06-24T01:40:02;13.25;;;10.10;;
24279;SDS011;12395;42.808;23.408;2023-06-24T01:42:35;15.02;;;10.60;;
24279;SDS011;12395;42.808;23.408;2023-06-24T01:45:03;14.60;;;10.02;;
24279;SDS011;12395;42.808;23.408;2023-06-24T01:47:32;14.75;;;10.65;;
24279;SDS011;12395;42.808;23.408;2023-06-24T01:49:59;15.88;;;11.00;;
24279;SDS011;12395;42.808;23.408;2023-06-24T01:52:27;16.90;;;10.90;;
24279;SDS011;12395;42.808;23.408;2023-06-24T01:54:54;15.65;;;10.95;;
24279;SDS011;12395;42.808;23.408;2023-06-24T01:57:20;14.82;;;10.95;;
24279;SDS011;12395;42.808;23.408;2023-06-24T02:02:14;15.80;;;11.27;;
24279;SDS011;12395;42.808;23.408;2023-06-24T02:04:40;17.00;;;11.65;;
24279;SDS011;12395;42.808;23.408;2023-06-24T02:07:08;18.35;;;12.43;;
24279;SDS011;12395;42.808;23.408;2023-06-24T02:09:36;16.95;;;11.30;;
24279;SDS011;12395;42.808;23.408;2023-06-24T02:12:03;14.68;;;11.23;;
24279;SDS011;12395;42.808;23.408;2023-06-24T02:16:56;15.43;;;10.90;;
24279;SDS011;12395;42.808;23.408;2023-06-24T02:19:25;16.27;;;11.50;;
24279;SDS011;12395;42.808;23.408;2023-06-24T02:21:55;20.42;;;12.52;;
24279;SDS011;12395;42.808;23.408;2023-06-24T02:24:22;16.95;;;12.07;;
24279;SDS011;12395;42.808;23.408;2023-06-24T02:26:49;17.75;;;11.68;;
24279;SDS011;12395;42.808;23.408;2023-06-24T02:29:15;15.60;;;11.23;;
24279;SDS011;12395;42.808;23.408;2023-06-24T02:31:42;16.23;;;11.15;;
24279;SDS011;12395;42.808;23.408;2023-06-24T02:34:07;16.50;;;11.07;;
24279;SDS011;12395;42.808;23.408;2023-06-24T02:36:33;16.17;;;11.50;;
24279;SDS011;12395;42.808;23.408;2023-06-24T02:38:58;16.33;;;11.27;;
24279;SDS011;12395;42.808;23.408;2023-06-24T02:41:24;16.98;;;11.90;;
24279;SDS011;12395;42.808;23.408;2023-06-24T02:43:50;17.38;;;11.52;;
24279;SDS011;12395;42.808;23.408;2023-06-24T02:46:15;15.15;;;10.93;;
24279;SDS011;12395;42.808;23.408;2023-06-24T02:48:41;16.75;;;11.45;;
24279;SDS011;12395;42.808;23.408;2023-06-24T02:51:08;15.80;;;11.25;;
24279;SDS011;12395;42.808;23.408;2023-06-24T02:53:36;17.42;;;11.80;;
24279;SDS011;12395;42.808;23.408;2023-06-24T02:56:03;16.13;;;11.57;;
24279;SDS011;12395;42.808;23.408;2023-06-24T02:58:31;17.05;;;11.27;;
24279;SDS011;12395;42.808;23.408;2023-06-24T03:01:00;15.65;;;10.73;;
24279;SDS011;12395;42.808;23.408;2023-06-24T03:03:28;18.38;;;11.85;;
24279;SDS011;12395;42.808;23.408;2023-06-24T03:05:54;15.50;;;11.05;;
24279;SDS011;12395;42.808;23.408;2023-06-24T03:08:22;14.48;;;10.95;;
24279;SDS011;12395;42.808;23.408;2023-06-24T03:10:54;14.73;;;10.68;;
24279;SDS011;12395;42.808;23.408;2023-06-24T03:13:21;15.98;;;11.35;;
24279;SDS011;12395;42.808;23.408;2023-06-24T03:15:46;14.38;;;10.80;;
24279;SDS011;12395;42.808;23.408;2023-06-24T03:18:12;16.27;;;10.60;;
24279;SDS011;12395;42.808;23.408;2023-06-24T03:20:37;17.25;;;11.43;;
24279;SDS011;12395;42.808;23.408;2023-06-24T03:23:06;15.80;;;11.10;;
24279;SDS011;12395;42.808;23.408;2023-06-24T03:25:32;16.23;;;11.07;;
24279;SDS011;12395;42.808;23.408;2023-06-24T03:27:57;15.25;;;10.73;;
24279;SDS011;12395;42.808;23.408;2023-06-24T03:30:25;15.88;;;11.48;;
24279;SDS011;12395;42.808;23.408;2023-06-24T03:32:51;16.15;;;11.48;;
24279;SDS011;12395;42.808;23.408;2023-06-24T03:35:17;14.18;;;10.50;;
24279;SDS011;12395;42.808;23.408;2023-06-24T03:37:42;14.73;;;11.05;;
24279;SDS011;12395;42.808;23.408;2023-06-24T03:40:08;16.02;;;11.15;;
24279;SDS011;12395;42.808;23.408;2023-06-24T03:42:33;17.80;;;11.73;;
24279;SDS011;12395;42.808;23.408;2023-06-24T03:44:59;16.95;;;12.18;;
24279;SDS011;12395;42.808;23.408;2023-06-24T03:47:24;16.55;;;11.88;;
24279;SDS011;12395;42.808;23.408;2023-06-24T03:49:50;17.55;;;11.30;;
24279;SDS011;12395;42.808;23.408;2023-06-24T03:52:16;15.93;;;11.98;;
24279;SDS011;12395;42.808;23.408;2023-06-24T03:54:42;16.30;;;11.70;;
24279;SDS011;12395;42.808;23.408;2023-06-24T03:57:07;15.57;;;11.20;;
24279;SDS011;12395;42.808;23.408;2023-06-24T03:59:34;15.60;;;11.13;;
24279;SDS011;12395;42.808;23.408;2023-06-24T04:01:59;15.32;;;11.07;;
24279;SDS011;12395;42.808;23.408;2023-06-24T04:04:28;15.57;;;11.00;;
24279;SDS011;12395;42.808;23.408;2023-06-24T04:06:53;14.45;;;10.23;;
24279;SDS011;12395;42.808;23.408;2023-06-24T04:09:18;14.50;;;10.60;;
24279;SDS011;12395;42.808;23.408;2023-06-24T04:11:44;14.30;;;10.82;;
24279;SDS011;12395;42.808;23.408;2023-06-24T04:14:09;15.23;;;11.23;;
24279;SDS011;12395;42.808;23.408;2023-06-24T04:16:35;13.88;;;9.82;;
24279;SDS011;12395;42.808;23.408;2023-06-24T04:19:01;12.45;;;9.60;;
24279;SDS011;12395;42.808;23.408;2023-06-24T04:21:27;12.43;;;8.95;;
24279;SDS011;12395;42.808;23.408;2023-06-24T04:23:52;13.07;;;9.10;;
24279;SDS011;12395;42.808;23.408;2023-06-24T04:26:18;15.32;;;9.50;;
24279;SDS011;12395;42.808;23.408;2023-06-24T04:28:44;12.90;;;10.07;;
24279;SDS011;12395;42.808;23.408;2023-06-24T04:31:09;13.63;;;10.55;;
24279;SDS011;12395;42.808;23.408;2023-06-24T04:33:34;15.00;;;10.07;;
24279;SDS011;12395;42.808;23.408;2023-06-24T04:36:00;15.13;;;10.10;;
24279;SDS011;12395;42.808;23.408;2023-06-24T04:38:25;15.73;;;9.88;;
24279;SDS011;12395;42.808;23.408;2023-06-24T04:40:50;11.00;;;9.65;;
24279;SDS011;12395;42.808;23.408;2023-06-24T04:43:16;13.93;;;9.82;;
24279;SDS011;12395;42.808;23.408;2023-06-24T04:45:41;10.80;;;8.93;;
24279;SDS011;12395;42.808;23.408;2023-06-24T04:48:07;10.73;;;8.32;;
24279;SDS011;12395;42.808;23.408;2023-06-24T04:50:32;10.70;;;8.68;;
24279;SDS011;12395;42.808;23.408;2023-06-24T04:52:58;10.30;;;8.85;;
24279;SDS011;12395;42.808;23.408;2023-06-24T04:55:24;12.43;;;9.10;;
24279;SDS011;12395;42.808;23.408;2023-06-24T04:57:50;14.18;;;9.90;;
24279;SDS011;12395;42.808;23.408;2023-06-24T05:00:15;12.98;;;9.95;;
24279;SDS011;12395;42.808;23.408;2023-06-24T05:02:41;11.98;;;9.68;;
24279;SDS011;12395;42.808;23.408;2023-06-24T05:05:06;11.68;;;9.45;;
24279;SDS011;12395;42.808;23.408;2023-06-24T05:07:32;13.50;;;10.20;;
24279;SDS011;12395;42.808;23.408;2023-06-24T05:09:57;13.43;;;10.45;;
24279;SDS011;12395;42.808;23.408;2023-06-24T05:12:23;13.25;;;10.35;;
24279;SDS011;12395;42.808;23.408;2023-06-24T05:14:51;13.32;;;10.65;;
24279;SDS011;12395;42.808;23.408;2023-06-24T05:17:17;16.38;;;10.77;;
24279;SDS011;12395;42.808;23.408;2023-06-24T05:19:43;14.88;;;10.95;;
24279;SDS011;12395;42.808;23.408;2023-06-24T05:22:09;16.30;;;11.07;;
24279;SDS011;12395;42.808;23.408;2023-06-24T05:24:34;14.30;;;10.85;;
24279;SDS011;12395;42.808;23.408;2023-06-24T05:27:03;14.60;;;10.80;;
24279;SDS011;12395;42.808;23.408;2023-06-24T05:29:30;14.88;;;11.07;;
24279;SDS011;12395;42.808;23.408;2023-06-24T05:31:56;15.35;;;11.55;;
24279;SDS011;12395;42.808;23.408;2023-06-24T05:34:21;15.82;;;11.40;;
24279;SDS011;12395;42.808;23.408;2023-06-24T05:36:46;16.35;;;10.75;;
24279;SDS011;12395;42.808;23.408;2023-06-24T05:39:12;14.38;;;10.57;;
24279;SDS011;12395;42.808;23.408;2023-06-24T05:41:38;13.73;;;10.93;;
24279;SDS011;12395;42.808;23.408;2023-06-24T05:44:04;19.45;;;11.27;;
24279;SDS011;12395;42.808;23.408;2023-06-24T05:46:31;20.75;;;14.45;;
24279;SDS011;12395;42.808;23.408;2023-06-24T05:48:57;15.52;;;12.02;;
24279;SDS011;12395;42.808;23.408;2023-06-24T05:51:22;14.82;;;11.73;;
24279;SDS011;12395;42.808;23.408;2023-06-24T05:53:48;15.23;;;11.40;;
24279;SDS011;12395;42.808;23.408;2023-06-24T05:56:13;17.38;;;11.20;;
24279;SDS011;12395;42.808;23.408;2023-06-24T05:58:38;15.20;;;11.52;;
24279;SDS011;12395;42.808;23.408;2023-06-24T06:01:04;14.32;;;11.45;;
24279;SDS011;12395;42.808;23.408;2023-06-24T06:03:30;17.23;;;11.52;;
24279;SDS011;12395;42.808;23.408;2023-06-24T06:05:56;15.30;;;11.68;;
24279;SDS011;12395;42.808;23.408;2023-06-24T06:08:21;17.10;;;11.75;;
24279;SDS011;12395;42.808;23.408;2023-06-24T06:10:46;15.68;;;12.02;;
24279;SDS011;12395;42.808;23.408;2023-06-24T06:13:12;15.95;;;11.18;;
24279;SDS011;12395;42.808;23.408;2023-06-24T06:15:37;18.00;;;11.60;;
24279;SDS011;12395;42.808;23.408;2023-06-24T06:18:03;17.75;;;11.25;;
24279;SDS011;12395;42.808;23.408;2023-06-24T06:20:28;16.58;;;11.70;;
24279;SDS011;12395;42.808;23.408;2023-06-24T06:22:53;16.38;;;11.13;;
24279;SDS011;12395;42.808;23.408;2023-06-24T06:25:19;15.48;;;10.80;;
24279;SDS011;12395;42.808;23.408;2023-06-24T06:27:44;13.48;;;10.18;;
24279;SDS011;12395;42.808;23.408;2023-06-24T06:30:10;13.18;;;10.13;;
24279;SDS011;12395;42.808;23.408;2023-06-24T06:32:36;15.77;;;9.65;;
24279;SDS011;12395;42.808;23.408;2023-06-24T06:35:01;11.90;;;9.15;;
24279;SDS011;12395;42.808;23.408;2023-06-24T06:37:27;12.02;;;8.77;;
24279;SDS011;12395;42.808;23.408;2023-06-24T06:39:52;12.05;;;8.50;;
24279;SDS011;12395;42.808;23.408;2023-06-24T06:42:18;11.75;;;8.90;;
24279;SDS011;12395;42.808;23.408;2023-06-24T06:44:43;12.20;;;8.43;;
24279;SDS011;12395;42.808;23.408;2023-06-24T06:47:09;11.85;;;8.82;;
24279;SDS011;12395;42.808;23.408;2023-06-24T06:49:35;12.30;;;8.95;;
24279;SDS011;12395;42.808;23.408;2023-06-24T06:52:01;11.70;;;8.80;;
24279;SDS011;12395;42.808;23.408;2023-06-24T06:54:26;14.52;;;9.18;;
24279;SDS011;12395;42.808;23.408;2023-06-24T07:49:39;10.52;;;8.00;;
24279;SDS011;12395;42.808;23.408;2023-06-24T07:52:05;9.70;;;8.07;;
24279;SDS011;12395;42.808;23.408;2023-06-24T07:54:31;12.55;;;8.77;;
24279;SDS011;12395;42.808;23.408;2023-06-24T07:56:56;12.13;;;8.50;;
24279;SDS011;12395;42.808;23.408;2023-06-24T07:59:22;10.60;;;8.82;;
24279;SDS011;12395;42.808;23.408;2023-06-24T08:01:47;10.45;;;8.25;;
24279;SDS011;12395;42.808;23.408;2023-06-24T08:04:14;11.90;;;8.57;;
24279;SDS011;12395;42.808;23.408;2023-06-24T08:09:05;11.57;;;8.70;;
24279;SDS011;12395;42.808;23.408;2023-06-24T08:11:30;11.73;;;8.70;;
24279;SDS011;12395;42.808;23.408;2023-06-24T08:13:56;11.90;;;8.93;;
24279;SDS011;12395;42.808;23.408;2023-06-24T08:16:21;10.50;;;8.50;;
24279;SDS011;12395;42.808;23.408;2023-06-24T08:18:46;13.07;;;8.57;;
24279;SDS011;12395;42.808;23.408;2023-06-24T08:21:12;10.07;;;8.32;;
24279;SDS011;12395;42.808;23.408;2023-06-24T08:23:37;14.15;;;8.80;;
24279;SDS011;12395;42.808;23.408;2023-06-24T08:26:03;10.60;;;8.23;;
24279;SDS011;12395;42.808;23.408;2023-06-24T08:28:28;11.20;;;8.82;;
24279;SDS011;12395;42.808;23.408;2023-06-24T08:30:54;11.02;;;8.65;;
24279;SDS011;12395;42.808;23.408;2023-06-24T08:33:19;10.65;;;8.43;;
24279;SDS011;12395;42.808;23.408;2023-06-24T08:35:45;11.82;;;8.57;;
24279;SDS011;12395;42.808;23.408;2023-06-24T08:38:10;11.32;;;8.45;;
24279;SDS011;12395;42.808;23.408;2023-06-24T08:40:36;10.90;;;8.77;;
24279;SDS011;12395;42.808;23.408;2023-06-24T08:43:05;10.50;;;8.40;;
24279;SDS011;12395;42.808;23.408;2023-06-24T08:45:31;11.45;;;8.93;;
24279;SDS011;12395;42.808;23.408;2023-06-24T08:47:57;13.20;;;8.40;;
24279;SDS011;12395;42.808;23.408;2023-06-24T08:50:27;10.63;;;8.40;;
24279;SDS011;12395;42.808;23.408;2023-06-24T08:52:58;10.45;;;8.63;;
24279;SDS011;12395;42.808;23.408;2023-06-24T08:55:28;12.40;;;8.40;;
24279;SDS011;12395;42.808;23.408;2023-06-24T08:57:57;11.55;;;8.80;;
24279;SDS011;12395;42.808;23.408;2023-06-24T09:00:23;11.88;;;8.35;;
24279;SDS011;12395;42.808;23.408;2023-06-24T09:02:49;11.02;;;8.40;;
24279;SDS011;12395;42.808;23.408;2023-06-24T09:05:14;12.57;;;8.95;;
24279;SDS011;12395;42.808;23.408;2023-06-24T09:07:40;11.10;;;8.65;;
24279;SDS011;12395;42.808;23.408;2023-06-24T09:10:05;11.07;;;8.95;;
24279;SDS011;12395;42.808;23.408;2023-06-24T09:12:32;11.48;;;9.05;;
24279;SDS011;12395;42.808;23.408;2023-06-24T09:14:58;12.75;;;9.13;;
24279;SDS011;12395;42.808;23.408;2023-06-24T09:17:23;13.27;;;9.13;;
24279;SDS011;12395;42.808;23.408;2023-06-24T09:19:49;13.27;;;9.27;;
24279;SDS011;12395;42.808;23.408;2023-06-24T09:22:15;11.73;;;8.98;;
24279;SDS011;12395;42.808;23.408;2023-06-24T09:24:47;10.43;;;9.15;;
24279;SDS011;12395;42.808;23.408;2023-06-24T09:27:14;12.15;;;9.13;;
24279;SDS011;12395;42.808;23.408;2023-06-24T09:29:40;12.57;;;9.10;;
24279;SDS011;12395;42.808;23.408;2023-06-24T09:32:07;11.95;;;9.00;;
24279;SDS011;12395;42.808;23.408;2023-06-24T09:34:33;11.10;;;8.85;;
24279;SDS011;12395;42.808;23.408;2023-06-24T09:36:59;11.43;;;9.20;;
24279;SDS011;12395;42.808;23.408;2023-06-24T09:39:26;14.90;;;9.55;;
24279;SDS011;12395;42.808;23.408;2023-06-24T09:41:55;12.80;;;8.95;;
24279;SDS011;12395;42.808;23.408;2023-06-24T09:44:27;13.02;;;8.95;;
24279;SDS011;12395;42.808;23.408;2023-06-24T09:46:53;10.80;;;8.88;;
24279;SDS011;12395;42.808;23.408;2023-06-24T09:49:21;13.07;;;9.40;;
24279;SDS011;12395;42.808;23.408;2023-06-24T09:51:47;10.73;;;8.70;;
24279;SDS011;12395;42.808;23.408;2023-06-24T09:54:15;12.45;;;9.10;;
24279;SDS011;12395;42.808;23.408;2023-06-24T09:56:50;13.73;;;9.05;;
24279;SDS011;12395;42.808;23.408;2023-06-24T09:59:18;12.15;;;8.98;;
24279;SDS011;12395;42.808;23.408;2023-06-24T10:01:45;9.63;;;8.20;;
24279;SDS011;12395;42.808;23.408;2023-06-24T10:06:40;13.23;;;9.10;;
24279;SDS011;12395;42.808;23.408;2023-06-24T10:09:06;11.00;;;8.38;;
24279;SDS011;12395;42.808;23.408;2023-06-24T10:11:31;10.98;;;9.02;;
24279;SDS011;12395;42.808;23.408;2023-06-24T10:13:58;12.75;;;9.10;;
24279;SDS011;12395;42.808;23.408;2023-06-24T10:16:24;12.07;;;8.73;;
24279;SDS011;12395;42.808;23.408;2023-06-24T10:18:49;13.52;;;10.20;;
24279;SDS011;12395;42.808;23.408;2023-06-24T10:21:15;15.13;;;8.98;;
24279;SDS011;12395;42.808;23.408;2023-06-24T10:23:42;10.77;;;8.90;;
24279;SDS011;12395;42.808;23.408;2023-06-24T10:34:20;12.40;;;9.25;;
24279;SDS011;12395;42.808;23.408;2023-06-24T10:36:54;12.40;;;8.88;;
24279;SDS011;12395;42.808;23.408;2023-06-24T10:39:54;11.82;;;9.13;;
24279;SDS011;12395;42.808;23.408;2023-06-24T10:47:18;11.18;;;8.40;;
24279;SDS011;12395;42.808;23.408;2023-06-24T10:49:44;12.37;;;8.80;;
24279;SDS011;12395;42.808;23.408;2023-06-24T10:52:10;12.18;;;8.45;;
24279;SDS011;12395;42.808;23.408;2023-06-24T10:54:37;13.00;;;8.07;;
24279;SDS011;12395;42.808;23.408;2023-06-24T10:57:03;11.35;;;8.55;;
24279;SDS011;12395;42.808;23.408;2023-06-24T10:59:42;9.80;;;8.35;;
24279;SDS011;12395;42.808;23.408;2023-06-24T11:02:15;11.90;;;8.63;;
24279;SDS011;12395;42.808;23.408;2023-06-24T11:04:45;10.68;;;8.77;;
24279;SDS011;12395;42.808;23.408;2023-06-24T11:07:19;11.05;;;8.60;;
24279;SDS011;12395;42.808;23.408;2023-06-24T11:09:52;10.93;;;8.27;;
24279;SDS011;12395;42.808;23.408;2023-06-24T11:12:25;10.02;;;8.20;;
24279;SDS011;12395;42.808;23.408;2023-06-24T11:14:59;10.80;;;8.18;;
24279;SDS011;12395;42.808;23.408;2023-06-24T11:17:27;11.05;;;8.82;;
24279;SDS011;12395;42.808;23.408;2023-06-24T11:19:53;11.00;;;9.00;;
24279;SDS011;12395;42.808;23.408;2023-06-24T11:22:19;10.98;;;8.93;;
24279;SDS011;12395;42.808;23.408;2023-06-24T11:24:45;13.50;;;9.40;;
24279;SDS011;12395;42.808;23.408;2023-06-24T11:27:10;11.27;;;9.27;;
24279;SDS011;12395;42.808;23.408;2023-06-24T11:29:36;10.67;;;8.77;;
24279;SDS011;12395;42.808;23.408;2023-06-24T11:32:02;12.90;;;9.00;;
24279;SDS011;12395;42.808;23.408;2023-06-24T11:34:28;11.07;;;8.63;;
24279;SDS011;12395;42.808;23.408;2023-06-24T11:36:55;11.80;;;9.20;;
24279;SDS011;12395;42.808;23.408;2023-06-24T11:39:24;10.30;;;8.70;;
24279;SDS011;12395;42.808;23.408;2023-06-24T11:41:51;10.15;;;7.93;;
24279;SDS011;12395;42.808;23.408;2023-06-24T11:44:18;10.95;;;7.80;;
24279;SDS011;12395;42.808;23.408;2023-06-24T11:46:48;9.70;;;7.40;;
24279;SDS011;12395;42.808;23.408;2023-06-24T11:49:14;10.20;;;8.10;;
24279;SDS011;12395;42.808;23.408;2023-06-24T11:51:49;10.07;;;8.00;;
24279;SDS011;12395;42.808;23.408;2023-06-24T11:54:17;9.82;;;8.05;;
24279;SDS011;12395;42.808;23.408;2023-06-24T11:56:49;9.13;;;7.63;;
24279;SDS011;12395;42.808;23.408;2023-06-24T11:59:18;12.50;;;8.07;;
24279;SDS011;12395;42.808;23.408;2023-06-24T12:01:45;11.95;;;8.60;;
24279;SDS011;12395;42.808;23.408;2023-06-24T12:04:16;10.55;;;7.93;;
24279;SDS011;12395;42.808;23.408;2023-06-24T12:06:42;11.40;;;8.53;;
24279;SDS011;12395;42.808;23.408;2023-06-24T12:09:09;9.93;;;7.93;;
24279;SDS011;12395;42.808;23.408;2023-06-24T12:11:35;12.43;;;8.60;;
24279;SDS011;12395;42.808;23.408;2023-06-24T12:14:01;10.35;;;8.68;;
24279;SDS011;12395;42.808;23.408;2023-06-24T12:16:26;10.40;;;8.60;;
24279;SDS011;12395;42.808;23.408;2023-06-24T12:18:52;10.17;;;8.37;;
24279;SDS011;12395;42.808;23.408;2023-06-24T12:21:18;11.33;;;8.27;;
24279;SDS011;12395;42.808;23.408;2023-06-24T12:23:44;13.07;;;8.70;;
24279;SDS011;12395;42.808;23.408;2023-06-24T12:26:09;11.23;;;8.70;;
24279;SDS011;12395;42.808;23.408;2023-06-24T12:28:35;11.13;;;8.77;;
24279;SDS011;12395;42.808;23.408;2023-06-24T12:31:01;12.03;;;9.23;;
24279;SDS011;12395;42.808;23.408;2023-06-24T12:33:26;11.73;;;9.07;;
24279;SDS011;12395;42.808;23.408;2023-06-24T12:35:52;10.93;;;8.93;;
24279;SDS011;12395;42.808;23.408;2023-06-24T12:38:17;11.47;;;8.80;;
24279;SDS011;12395;42.808;23.408;2023-06-24T12:40:42;12.70;;;9.27;;
24279;SDS011;12395;42.808;23.408;2023-06-24T12:43:08;14.03;;;9.27;;
24279;SDS011;12395;42.808;23.408;2023-06-24T12:45:34;11.83;;;9.07;;
24279;SDS011;12395;42.808;23.408;2023-06-24T12:47:59;12.57;;;8.90;;
24279;SDS011;12395;42.808;23.408;2023-06-24T12:50:25;10.43;;;8.90;;
24279;SDS011;12395;42.808;23.408;2023-06-24T12:52:50;15.27;;;9.17;;
24279;SDS011;12395;42.808;23.408;2023-06-24T12:55:16;11.70;;;8.77;;
24279;SDS011;12395;42.808;23.408;2023-06-24T12:57:42;11.77;;;9.10;;
24279;SDS011;12395;42.808;23.408;2023-06-24T13:00:07;10.73;;;8.90;;
24279;SDS011;12395;42.808;23.408;2023-06-24T13:02:34;11.95;;;8.93;;
24279;SDS011;12395;42.808;23.408;2023-06-24T13:05:00;12.45;;;8.90;;
24279;SDS011;12395;42.808;23.408;2023-06-24T13:07:26;13.50;;;9.20;;
24279;SDS011;12395;42.808;23.408;2023-06-24T13:09:51;14.00;;;8.73;;
24279;SDS011;12395;42.808;23.408;2023-06-24T13:12:16;11.37;;;8.67;;
24279;SDS011;12395;42.808;23.408;2023-06-24T13:14:42;10.67;;;8.60;;
24279;SDS011;12395;42.808;23.408;2023-06-24T13:17:07;11.52;;;8.93;;
24279;SDS011;12395;42.808;23.408;2023-06-24T13:19:32;12.67;;;9.73;;
24279;SDS011;12395;42.808;23.408;2023-06-24T13:24:30;11.65;;;7.78;;
24279;SDS011;12395;42.808;23.408;2023-06-24T13:26:56;15.25;;;8.40;;
24279;SDS011;12395;42.808;23.408;2023-06-24T13:29:21;8.32;;;4.90;;
24279;SDS011;12395;42.808;23.408;2023-06-24T13:31:47;12.60;;;5.65;;
24279;SDS011;12395;42.808;23.408;2023-06-24T13:34:12;11.32;;;6.63;;
24279;SDS011;12395;42.808;23.408;2023-06-24T13:36:38;14.00;;;6.88;;
24279;SDS011;12395;42.808;23.408;2023-06-24T13:39:05;19.55;;;9.20;;
24279;SDS011;12395;42.808;23.408;2023-06-24T13:50:27;17.30;;;7.10;;
24279;SDS011;12395;42.808;23.408;2023-06-24T13:52:54;17.33;;;8.97;;
